Vg 117 Kungsvik — SBTH — position and weather

sailwx.info

Track history (hours):
 
Tides and Currents Weather Stations Pressure Air Temp Water Temp Dewpoint Dewpoint Depression Visibility Wind Speed Wind Dir Waves Ship Positions

Vg 117 Kungsvik

Last reported at 2016-Aug-27 16:33 UTC. Time now 2016-Aug-27 16:45 UTC.
Position N 57°04' E 012°16'.

Length 17 m; draft 3.7 m.

Type: Fishing. MMSI: 266137000.

Date/timePositionNaut miles runAvg speedWind from/ knotsBaromVisibWave heightAir tempDewpointWater temp
2016-Aug-27 16:33N 57°04' E 012°16'0 0.0
2016-Aug-27 15:04N 57°04' E 012°16'0 0.0
2016-Aug-27 14:33N 57°04' E 012°16'0 0.0
2016-Aug-27 13:15N 57°04' E 012°16'0 0.0
2016-Aug-27 12:21N 57°04' E 012°16'0 0.0
2016-Aug-27 11:33N 57°04' E 012°16'0 0.0
2016-Aug-27 10:33N 57°04' E 012°16'0 0.0
2016-Aug-27 09:33N 57°04' E 012°16'0 0.0
2016-Aug-27 08:29N 57°04' E 012°16'0 0.0
2016-Aug-27 07:33N 57°04' E 012°16'0 0.0
2016-Aug-27 06:21N 57°04' E 012°16'0 0.0
2016-Aug-27 04:27N 57°04' E 012°16'0 0.0
2016-Aug-27 03:09N 57°04' E 012°16'0 0.0
2016-Aug-27 02:33N 57°04' E 012°16'0 0.0
2016-Aug-27 01:33N 57°04' E 012°16'0 0.0
2016-Aug-27 00:33N 57°04' E 012°16'0 0.0
2016-Aug-26 23:22N 57°04' E 012°16'0 0.0
2016-Aug-26 22:15N 57°04' E 012°16'0 0.0
2016-Aug-26 21:34N 57°04' E 012°16'0 0.0
2016-Aug-26 20:16N 57°04' E 012°16'0 0.0
2016-Aug-26 18:16N 57°04' E 012°16'0 0.0
2016-Aug-26 17:28N 57°04' E 012°16'0 0.0
2016-Aug-26 16:16N 57°04' E 012°16'0 0.0
2016-Aug-26 15:28N 57°04' E 012°16'0 0.0
2016-Aug-26 14:22N 57°04' E 012°16'0 0.0
2016-Aug-26 13:28N 57°04' E 012°16'0 0.0
2016-Aug-26 12:10N 57°04' E 012°16'0 0.0
2016-Aug-26 11:22N 57°04' E 012°16'0 0.0
2016-Aug-26 10:28N 57°04' E 012°16'0 0.0
2016-Aug-26 09:28N 57°04' E 012°16'0 0.0
2016-Aug-26 08:16N 57°04' E 012°16'0 0.0
2016-Aug-26 07:22N 57°04' E 012°16'0 0.0
2016-Aug-26 06:28N 57°04' E 012°16'0 0.0
2016-Aug-26 03:28N 57°04' E 012°16'0 0.0
2016-Aug-26 02:22N 57°04' E 012°16'0 0.0
2016-Aug-26 01:28N 57°04' E 012°16'0 0.0
2016-Aug-26 00:28N 57°04' E 012°16'0 0.0
2016-Aug-25 23:28N 57°04' E 012°16'0 0.0
2016-Aug-25 22:22N 57°04' E 012°16'0 0.0
2016-Aug-25 21:28N 57°04' E 012°16'0 0.0
2016-Aug-25 20:22N 57°04' E 012°16'0 0.0
2016-Aug-25 19:28N 57°04' E 012°16'0 0.0
2016-Aug-25 18:10N 57°04' E 012°16'4 6.1
2016-Aug-25 17:33N 57°00' E 012°14'5 5.1
2016-Aug-25 16:33N 56°56' E 012°09'2 2.2
2016-Aug-25 15:33N 56°54' E 012°06'2 1.5
2016-Aug-25 14:32N 56°53' E 012°06'2 2.3
2016-Aug-25 13:32N 56°55' E 012°07'1 1.2
2016-Aug-25 12:32N 56°55' E 012°05'2 2.0
2016-Aug-25 11:33N 56°53' E 012°04'2 2.0
2016-Aug-25 10:33N 56°54' E 012°07'1 1.0
2016-Aug-25 09:29N 56°54' E 012°05'2 2.1
2016-Aug-25 08:33N 56°53' E 012°08'2 1.7
2016-Aug-25 07:32N 56°55' E 012°07'1 0.6
2016-Aug-25 06:31N 56°55' E 012°07'0 0.2
2016-Aug-25 04:33N 56°55' E 012°07'2 2.3
2016-Aug-25 03:30N 56°56' E 012°11'2 2.2
2016-Aug-25 02:33N 56°56' E 012°15'6 5.1
2016-Aug-25 01:26N 57°02' E 012°14'2 0.3
2016-Aug-24 18:08N 57°04' E 012°16'1 2.1
2016-Aug-24 17:27N 57°03' E 012°14'5 5.1
2016-Aug-24 16:29N 57°02' E 012°05'2 1.5
2016-Aug-24 15:14N 57°00' E 012°04'2 2.4
2016-Aug-24 14:33N 57°01' E 012°01'0 0.1
2016-Aug-24 12:06N 57°01' E 012°01'1 2.2
2016-Aug-24 11:33N 57°00' E 012°03'3 2.5
2016-Aug-24 10:32N 57°03' E 012°01'2 0.5
2016-Aug-24 06:25N 57°01' E 011°60'2 1.0
2016-Aug-24 04:33N 57°02' E 011°57'3 2.6
2016-Aug-24 03:33N 57°01' E 012°01'2 2.3
2016-Aug-24 02:29N 56°60' E 012°05'5 5.0
2016-Aug-24 01:33N 57°02' E 012°13'2 0.3
2016-Aug-23 18:13N 57°04' E 012°16'1 2.1
2016-Aug-23 17:32N 57°03' E 012°14'5 4.9
2016-Aug-23 16:30N 57°02' E 012°05'2 2.2
2016-Aug-23 15:30N 57°02' E 012°00'3 2.5
2016-Aug-23 14:30N 57°04' E 011°58'1 0.1
2016-Aug-23 09:12N 57°04' E 011°59'2 0.5
2016-Aug-23 04:23N 57°02' E 011°56'2 2.5
2016-Aug-23 03:32N 57°01' E 011°60'3 2.6
2016-Aug-23 02:32N 56°60' E 012°04'5 5.2
2016-Aug-23 01:32N 57°03' E 012°12'3 1.3
2016-Aug-22 23:29N 57°04' E 012°16'0 0.0
2016-Aug-22 22:29N 57°04' E 012°16'0 0.0
2016-Aug-22 21:29N 57°04' E 012°16'0 0.0
2016-Aug-22 20:23N 57°04' E 012°16'0 0.0
2016-Aug-22 18:29N 57°04' E 012°16'2 1.8
2016-Aug-22 17:33N 57°03' E 012°13'6 6.1
2016-Aug-22 16:33N 57°04' E 012°02'2 2.0
2016-Aug-22 15:34N 57°05' E 011°59'2 0.8
2016-Aug-22 13:25N 57°06' E 011°56'1 0.4
2016-Aug-22 09:20N 57°04' E 011°56'1 0.2
2016-Aug-22 02:32N 57°03' E 011°55'5 5.5
2016-Aug-22 01:33N 57°03' E 012°05'6 5.3
2016-Aug-22 00:23N 57°04' E 012°16'0 0.0
2016-Aug-21 23:17N 57°04' E 012°16'0 0.0
2016-Aug-21 22:23N 57°04' E 012°16'0 0.0
2016-Aug-21 21:23N 57°04' E 012°16'0 0.0
2016-Aug-21 20:23N 57°04' E 012°16'0 0.0
2016-Aug-21 19:24N 57°04' E 012°16'0 0.0
2016-Aug-21 18:29N 57°04' E 012°16'0 0.0
2016-Aug-21 17:17N 57°04' E 012°16'0 0.0
2016-Aug-21 16:23N 57°04' E 012°16'0 0.0
2016-Aug-21 15:23N 57°04' E 012°16'0 0.0
2016-Aug-21 14:29N 57°04' E 012°16'0 0.0
2016-Aug-21 13:29N 57°04' E 012°16'0 0.0
2016-Aug-21 11:17N 57°04' E 012°16'0 0.0
2016-Aug-21 10:11N 57°04' E 012°16'0 0.0
2016-Aug-21 09:29N 57°04' E 012°16'0 0.0
2016-Aug-21 08:17N 57°04' E 012°16'0 0.0
2016-Aug-21 07:29N 57°04' E 012°16'0 0.0
2016-Aug-21 06:29N 57°04' E 012°16'0 0.0
2016-Aug-21 05:29N 57°04' E 012°16'0 0.0
2016-Aug-21 04:23N 57°04' E 012°16'0 0.0
2016-Aug-21 03:23N 57°04' E 012°16'0 0.0
2016-Aug-21 02:29N 57°04' E 012°16'0 0.0
2016-Aug-21 01:29N 57°04' E 012°16'0 0.0
2016-Aug-21 00:23N 57°04' E 012°16'0 0.0
2016-Aug-20 23:23N 57°04' E 012°16'0 0.0
2016-Aug-20 22:29N 57°04' E 012°16'0 0.0
2016-Aug-20 21:05N 57°04' E 012°16'0 0.0
2016-Aug-20 20:05N 57°04' E 012°16'0 0.0
2016-Aug-20 19:29N 57°04' E 012°16'0 0.0
2016-Aug-20 18:17N 57°04' E 012°16'0 0.0
2016-Aug-20 17:05N 57°04' E 012°16'0 0.0
2016-Aug-20 16:11N 57°04' E 012°16'0 0.0
2016-Aug-20 15:23N 57°04' E 012°16'0 0.0
2016-Aug-20 14:23N 57°04' E 012°16'0 0.0
2016-Aug-20 13:29N 57°04' E 012°16'0 0.0
2016-Aug-20 12:23N 57°04' E 012°16'0 0.0
2016-Aug-20 11:23N 57°04' E 012°16'0 0.0
2016-Aug-20 10:18N 57°04' E 012°16'0 0.0
2016-Aug-20 09:23N 57°04' E 012°16'0 0.0
2016-Aug-20 08:29N 57°04' E 012°16'0 0.0
2016-Aug-20 07:29N 57°04' E 012°16'0 0.0
2016-Aug-20 06:29N 57°04' E 012°16'0 0.0
2016-Aug-20 05:29N 57°04' E 012°16'0 0.0
2016-Aug-20 04:29N 57°04' E 012°16'0 0.0
2016-Aug-20 03:29N 57°04' E 012°16'0 0.0
2016-Aug-20 01:11N 57°04' E 012°16'0 0.0
2016-Aug-20 00:29N 57°04' E 012°16'0 0.0
2016-Aug-19 23:29N 57°04' E 012°16'0 0.0
2016-Aug-19 22:17N 57°04' E 012°16'0 0.0
2016-Aug-19 21:29N 57°04' E 012°16'0 0.0
2016-Aug-19 20:29N 57°04' E 012°16'0 0.0
2016-Aug-19 19:29N 57°04' E 012°16'0 0.0
2016-Aug-19 18:29N 57°04' E 012°16'0 0.0
2016-Aug-19 17:23N 57°04' E 012°16'0 0.0
2016-Aug-19 16:29N 57°04' E 012°16'0 0.0
2016-Aug-19 15:30N 57°04' E 012°16'0 0.0
2016-Aug-19 14:29N 57°04' E 012°16'0 0.0
2016-Aug-19 13:29N 57°04' E 012°16'0 0.0
2016-Aug-19 12:29N 57°04' E 012°16'0 0.0
2016-Aug-19 11:29N 57°04' E 012°16'0 0.0
2016-Aug-19 10:05N 57°04' E 012°16'0 0.0
2016-Aug-19 08:11N 57°04' E 012°16'0 0.0
2016-Aug-19 07:29N 57°04' E 012°16'0 0.0
2016-Aug-19 06:23N 57°04' E 012°16'0 0.0
2016-Aug-19 05:29N 57°04' E 012°16'0 0.0
2016-Aug-19 04:30N 57°04' E 012°16'0 0.0
2016-Aug-19 03:29N 57°04' E 012°16'0 0.0
2016-Aug-19 02:29N 57°04' E 012°16'0 0.0
2016-Aug-19 01:23N 57°04' E 012°16'0 0.0
2016-Aug-19 00:29N 57°04' E 012°16'0 0.0
2016-Aug-18 23:11N 57°04' E 012°16'0 0.0
2016-Aug-18 22:23N 57°04' E 012°16'0 0.0
2016-Aug-18 21:29N 57°04' E 012°16'0 0.0
2016-Aug-18 20:29N 57°04' E 012°16'0 0.0
2016-Aug-18 19:23N 57°04' E 012°16'0 0.0
2016-Aug-18 18:17N 57°04' E 012°16'0 0.4
2016-Aug-18 17:23N 57°03' E 012°16'5 6.0
2016-Aug-18 16:33N 57°03' E 012°06'4 3.6
2016-Aug-18 15:33N 57°05' E 012°00'3 2.1
2016-Aug-18 14:14N 57°06' E 011°55'5 0.4
2016-Aug-18 03:12N 57°02' E 011°51'3 2.7
2016-Aug-18 02:14N 57°03' E 011°55'5 7.0
2016-Aug-18 01:32N 57°03' E 012°04'7 1.7
2016-Aug-17 21:33N 57°04' E 012°16'5 1.3
2016-Aug-17 17:27N 57°03' E 012°07'  
Track history (hours):
 
Tides and Currents Weather Stations Pressure Air Temp Water Temp Dewpoint Dewpoint Depression Visibility Wind Speed Wind Dir Waves Ship Positions

Vg 117 Kungsvik

Last reported at 2016-Aug-27 16:33 UTC. Time now 2016-Aug-27 16:45 UTC.
Position N 57°04' E 012°16'.

Length 17 m; draft 3.7 m.

Type: Fishing. MMSI: 266137000.

Date/timePositionNaut miles runAvg speedWind from/ knotsBaromVisibWave heightAir tempDewpointWater temp
2016-Aug-27 16:33N 57°04' E 012°16'0 0.0
2016-Aug-27 15:04N 57°04' E 012°16'0 0.0
2016-Aug-27 14:33N 57°04' E 012°16'0 0.0
2016-Aug-27 13:15N 57°04' E 012°16'0 0.0
2016-Aug-27 12:21N 57°04' E 012°16'0 0.0
2016-Aug-27 11:33N 57°04' E 012°16'0 0.0
2016-Aug-27 10:33N 57°04' E 012°16'0 0.0
2016-Aug-27 09:33N 57°04' E 012°16'0 0.0
2016-Aug-27 08:29N 57°04' E 012°16'0 0.0
2016-Aug-27 07:33N 57°04' E 012°16'0 0.0
2016-Aug-27 06:21N 57°04' E 012°16'0 0.0
2016-Aug-27 04:27N 57°04' E 012°16'0 0.0
2016-Aug-27 03:09N 57°04' E 012°16'0 0.0
2016-Aug-27 02:33N 57°04' E 012°16'0 0.0
2016-Aug-27 01:33N 57°04' E 012°16'0 0.0
2016-Aug-27 00:33N 57°04' E 012°16'0 0.0
2016-Aug-26 23:22N 57°04' E 012°16'0 0.0
2016-Aug-26 22:15N 57°04' E 012°16'0 0.0
2016-Aug-26 21:34N 57°04' E 012°16'0 0.0
2016-Aug-26 20:16N 57°04' E 012°16'0 0.0
2016-Aug-26 18:16N 57°04' E 012°16'0 0.0
2016-Aug-26 17:28N 57°04' E 012°16'0 0.0
2016-Aug-26 16:16N 57°04' E 012°16'0 0.0
2016-Aug-26 15:28N 57°04' E 012°16'0 0.0
2016-Aug-26 14:22N 57°04' E 012°16'0 0.0
2016-Aug-26 13:28N 57°04' E 012°16'0 0.0
2016-Aug-26 12:10N 57°04' E 012°16'0 0.0
2016-Aug-26 11:22N 57°04' E 012°16'0 0.0
2016-Aug-26 10:28N 57°04' E 012°16'0 0.0
2016-Aug-26 09:28N 57°04' E 012°16'0 0.0
2016-Aug-26 08:16N 57°04' E 012°16'0 0.0
2016-Aug-26 07:22N 57°04' E 012°16'0 0.0
2016-Aug-26 06:28N 57°04' E 012°16'0 0.0
2016-Aug-26 03:28N 57°04' E 012°16'0 0.0
2016-Aug-26 02:22N 57°04' E 012°16'0 0.0
2016-Aug-26 01:28N 57°04' E 012°16'0 0.0
2016-Aug-26 00:28N 57°04' E 012°16'0 0.0
2016-Aug-25 23:28N 57°04' E 012°16'0 0.0
2016-Aug-25 22:22N 57°04' E 012°16'0 0.0
2016-Aug-25 21:28N 57°04' E 012°16'0 0.0
2016-Aug-25 20:22N 57°04' E 012°16'0 0.0
2016-Aug-25 19:28N 57°04' E 012°16'0 0.0
2016-Aug-25 18:10N 57°04' E 012°16'4 6.1
2016-Aug-25 17:33N 57°00' E 012°14'5 5.1
2016-Aug-25 16:33N 56°56' E 012°09'2 2.2
2016-Aug-25 15:33N 56°54' E 012°06'2 1.5
2016-Aug-25 14:32N 56°53' E 012°06'2 2.3
2016-Aug-25 13:32N 56°55' E 012°07'1 1.2
2016-Aug-25 12:32N 56°55' E 012°05'2 2.0
2016-Aug-25 11:33N 56°53' E 012°04'2 2.0
2016-Aug-25 10:33N 56°54' E 012°07'1 1.0
2016-Aug-25 09:29N 56°54' E 012°05'2 2.1
2016-Aug-25 08:33N 56°53' E 012°08'2 1.7
2016-Aug-25 07:32N 56°55' E 012°07'1 0.6
2016-Aug-25 06:31N 56°55' E 012°07'0 0.2
2016-Aug-25 04:33N 56°55' E 012°07'2 2.3
2016-Aug-25 03:30N 56°56' E 012°11'2 2.2
2016-Aug-25 02:33N 56°56' E 012°15'6 5.1
2016-Aug-25 01:26N 57°02' E 012°14'2 0.3
2016-Aug-24 18:08N 57°04' E 012°16'1 2.1
2016-Aug-24 17:27N 57°03' E 012°14'5 5.1
2016-Aug-24 16:29N 57°02' E 012°05'2 1.5
2016-Aug-24 15:14N 57°00' E 012°04'2 2.4
2016-Aug-24 14:33N 57°01' E 012°01'0 0.1
2016-Aug-24 12:06N 57°01' E 012°01'1 2.2
2016-Aug-24 11:33N 57°00' E 012°03'3 2.5
2016-Aug-24 10:32N 57°03' E 012°01'2 0.5
2016-Aug-24 06:25N 57°01' E 011°60'2 1.0
2016-Aug-24 04:33N 57°02' E 011°57'3 2.6
2016-Aug-24 03:33N 57°01' E 012°01'2 2.3
2016-Aug-24 02:29N 56°60' E 012°05'5 5.0
2016-Aug-24 01:33N 57°02' E 012°13'2 0.3
2016-Aug-23 18:13N 57°04' E 012°16'1 2.1
2016-Aug-23 17:32N 57°03' E 012°14'5 4.9
2016-Aug-23 16:30N 57°02' E 012°05'2 2.2
2016-Aug-23 15:30N 57°02' E 012°00'3 2.5
2016-Aug-23 14:30N 57°04' E 011°58'1 0.1
2016-Aug-23 09:12N 57°04' E 011°59'2 0.5
2016-Aug-23 04:23N 57°02' E 011°56'2 2.5
2016-Aug-23 03:32N 57°01' E 011°60'3 2.6
2016-Aug-23 02:32N 56°60' E 012°04'5 5.2
2016-Aug-23 01:32N 57°03' E 012°12'3 1.3
2016-Aug-22 23:29N 57°04' E 012°16'0 0.0
2016-Aug-22 22:29N 57°04' E 012°16'0 0.0
2016-Aug-22 21:29N 57°04' E 012°16'0 0.0
2016-Aug-22 20:23N 57°04' E 012°16'0 0.0
2016-Aug-22 18:29N 57°04' E 012°16'2 1.8
2016-Aug-22 17:33N 57°03' E 012°13'6 6.1
2016-Aug-22 16:33N 57°04' E 012°02'2 2.0
2016-Aug-22 15:34N 57°05' E 011°59'2 0.8
2016-Aug-22 13:25N 57°06' E 011°56'1 0.4
2016-Aug-22 09:20N 57°04' E 011°56'1 0.2
2016-Aug-22 02:32N 57°03' E 011°55'5 5.5
2016-Aug-22 01:33N 57°03' E 012°05'6 5.3
2016-Aug-22 00:23N 57°04' E 012°16'0 0.0
2016-Aug-21 23:17N 57°04' E 012°16'0 0.0
2016-Aug-21 22:23N 57°04' E 012°16'0 0.0
2016-Aug-21 21:23N 57°04' E 012°16'0 0.0
2016-Aug-21 20:23N 57°04' E 012°16'0 0.0
2016-Aug-21 19:24N 57°04' E 012°16'0 0.0
2016-Aug-21 18:29N 57°04' E 012°16'0 0.0
2016-Aug-21 17:17N 57°04' E 012°16'0 0.0
2016-Aug-21 16:23N 57°04' E 012°16'0 0.0
2016-Aug-21 15:23N 57°04' E 012°16'0 0.0
2016-Aug-21 14:29N 57°04' E 012°16'0 0.0
2016-Aug-21 13:29N 57°04' E 012°16'0 0.0
2016-Aug-21 11:17N 57°04' E 012°16'0 0.0
2016-Aug-21 10:11N 57°04' E 012°16'0 0.0
2016-Aug-21 09:29N 57°04' E 012°16'0 0.0
2016-Aug-21 08:17N 57°04' E 012°16'0 0.0
2016-Aug-21 07:29N 57°04' E 012°16'0 0.0
2016-Aug-21 06:29N 57°04' E 012°16'0 0.0
2016-Aug-21 05:29N 57°04' E 012°16'0 0.0
2016-Aug-21 04:23N 57°04' E 012°16'0 0.0
2016-Aug-21 03:23N 57°04' E 012°16'0 0.0
2016-Aug-21 02:29N 57°04' E 012°16'0 0.0
2016-Aug-21 01:29N 57°04' E 012°16'0 0.0
2016-Aug-21 00:23N 57°04' E 012°16'0 0.0
2016-Aug-20 23:23N 57°04' E 012°16'0 0.0
2016-Aug-20 22:29N 57°04' E 012°16'0 0.0
2016-Aug-20 21:05N 57°04' E 012°16'0 0.0
2016-Aug-20 20:05N 57°04' E 012°16'0 0.0
2016-Aug-20 19:29N 57°04' E 012°16'0 0.0
2016-Aug-20 18:17N 57°04' E 012°16'0 0.0
2016-Aug-20 17:05N 57°04' E 012°16'0 0.0
2016-Aug-20 16:11N 57°04' E 012°16'0 0.0
2016-Aug-20 15:23N 57°04' E 012°16'0 0.0
2016-Aug-20 14:23N 57°04' E 012°16'0 0.0
2016-Aug-20 13:29N 57°04' E 012°16'0 0.0
2016-Aug-20 12:23N 57°04' E 012°16'0 0.0
2016-Aug-20 11:23N 57°04' E 012°16'0 0.0
2016-Aug-20 10:18N 57°04' E 012°16'0 0.0
2016-Aug-20 09:23N 57°04' E 012°16'0 0.0
2016-Aug-20 08:29N 57°04' E 012°16'0 0.0
2016-Aug-20 07:29N 57°04' E 012°16'0 0.0
2016-Aug-20 06:29N 57°04' E 012°16'0 0.0
2016-Aug-20 05:29N 57°04' E 012°16'0 0.0
2016-Aug-20 04:29N 57°04' E 012°16'0 0.0
2016-Aug-20 03:29N 57°04' E 012°16'0 0.0
2016-Aug-20 01:11N 57°04' E 012°16'0 0.0
2016-Aug-20 00:29N 57°04' E 012°16'0 0.0
2016-Aug-19 23:29N 57°04' E 012°16'0 0.0
2016-Aug-19 22:17N 57°04' E 012°16'0 0.0
2016-Aug-19 21:29N 57°04' E 012°16'0 0.0
2016-Aug-19 20:29N 57°04' E 012°16'0 0.0
2016-Aug-19 19:29N 57°04' E 012°16'0 0.0
2016-Aug-19 18:29N 57°04' E 012°16'0 0.0
2016-Aug-19 17:23N 57°04' E 012°16'0 0.0
2016-Aug-19 16:29N 57°04' E 012°16'0 0.0
2016-Aug-19 15:30N 57°04' E 012°16'0 0.0
2016-Aug-19 14:29N 57°04' E 012°16'0 0.0
2016-Aug-19 13:29N 57°04' E 012°16'0 0.0
2016-Aug-19 12:29N 57°04' E 012°16'0 0.0
2016-Aug-19 11:29N 57°04' E 012°16'0 0.0
2016-Aug-19 10:05N 57°04' E 012°16'0 0.0
2016-Aug-19 08:11N 57°04' E 012°16'0 0.0
2016-Aug-19 07:29N 57°04' E 012°16'0 0.0
2016-Aug-19 06:23N 57°04' E 012°16'0 0.0
2016-Aug-19 05:29N 57°04' E 012°16'0 0.0
2016-Aug-19 04:30N 57°04' E 012°16'0 0.0
2016-Aug-19 03:29N 57°04' E 012°16'0 0.0
2016-Aug-19 02:29N 57°04' E 012°16'0 0.0
2016-Aug-19 01:23N 57°04' E 012°16'0 0.0
2016-Aug-19 00:29N 57°04' E 012°16'0 0.0
2016-Aug-18 23:11N 57°04' E 012°16'0 0.0
2016-Aug-18 22:23N 57°04' E 012°16'0 0.0
2016-Aug-18 21:29N 57°04' E 012°16'0 0.0
2016-Aug-18 20:29N 57°04' E 012°16'0 0.0
2016-Aug-18 19:23N 57°04' E 012°16'0 0.0
2016-Aug-18 18:17N 57°04' E 012°16'0 0.4
2016-Aug-18 17:23N 57°03' E 012°16'5 6.0
2016-Aug-18 16:33N 57°03' E 012°06'4 3.6
2016-Aug-18 15:33N 57°05' E 012°00'3 2.1
2016-Aug-18 14:14N 57°06' E 011°55'5 0.4
2016-Aug-18 03:12N 57°02' E 011°51'3 2.7
2016-Aug-18 02:14N 57°03' E 011°55'5 7.0
2016-Aug-18 01:32N 57°03' E 012°04'7 1.7
2016-Aug-17 21:33N 57°04' E 012°16'5 1.3
2016-Aug-17 17:27N 57°03' E 012°07'  

Dump ship's entire track history